• Join FlightAware (Why Join?)
  • Login
  • US Flag 
12:16PM EDT


 

Airport Tracker/Info


-or-


 

Live Flight TrackerFlight Track Log ✈ KAP927 ✈ 15-Aug-2013 ✈ KOGS - KALB

Flight Track Log - Related Links

Times and Time Zones

All times are in EDT time to prevent confusion due to time zone crossing. See the KAP927 flight status page for this flight to view local times or setup timezone preferences in your user account.

Time Position Orientation Groundspeed Altitude Reporting Facility
EDT Latitude Longitude Course Direction KTS MPH feet Rate Location/Type
05:28PM 44.5531 -75.3797 149° Southeast 156 180 3,400  Level Boston Center
05:29PM 44.5203 -75.3575 154° Southeast 149 171 3,700 360 Climbing Boston Center
05:30PM 44.4856 -75.3325 153° Southeast 137 158 4,200 420 Climbing Boston Center
05:31PM 44.4531 -75.2961 141° Southeast 143 165 4,600 360 Climbing Boston Center
05:32PM 44.4183 -75.2653 148° Southeast 143 165 5,000 480 Climbing Boston Center
05:33PM 44.4902 -75.2947 149° Southeast  Level Estimated
05:33PM 44.3836 -75.2375 150° Southeast 143 165 5,600  Level Boston Center
05:34PM 44.3531 -75.2100 147° Southeast 137 158 6,100 540 Climbing Boston Center
05:35PM 44.3203 -75.1794 146° Southeast 137 158 6,700 540 Climbing Boston Center
05:36PM 44.2878 -75.1519 149° Southeast 137 158 7,200 360 Climbing Boston Center
05:37PM 44.2611 -75.1275 147° Southeast 137 158 7,500 420 Climbing Boston Center
05:38PM 44.2183 -75.0850 145° Southeast 142 163 8,100 480 Climbing Boston Center
05:39PM 44.1817 -75.0544 149° Southeast 142 163 8,500 300 Climbing Boston Center
05:40PM 44.1447 -75.0208 147° Southeast 147 169 8,800 300 Climbing Boston Center
05:41PM 44.1081 -74.9875 147° Southeast 152 175 9,200 300 Climbing Boston Center
05:42PM 44.0692 -74.9511 146° Southeast 162 186 9,400 120 Climbing Boston Center
05:43PM 44.0264 -74.9147 149° Southeast 167 192 9,500  Climbing Boston Center
05:44PM 43.9856 -74.8756 145° Southeast 172 198 9,500 -60 Level Boston Center
05:45PM 43.9425 -74.8364 147° Southeast 178 205 9,400  Descending Boston Center
05:46PM 43.8975 -74.8000 150° Southeast 178 205 9,500  Climbing Boston Center
05:47PM 43.8544 -74.7608 147° Southeast 178 205 9,500  Level Boston Center
05:48PM 43.8114 -74.7244 149° Southeast 178 205 9,500  Level Boston Center
05:49PM 43.7683 -74.6856 147° Southeast 178 205 9,500 -60 Level Boston Center
05:50PM 43.7233 -74.6464 148° Southeast 178 205 9,400 -60 Descending Boston Center
05:51PM 43.6783 -74.6017 144° Southeast 183 211 9,400  Level Boston Center
05:52PM 43.6353 -74.5658 149° Southeast 183 211 9,500  Climbing Boston Center
05:53PM 43.5800 -74.5150 146° Southeast 183 211 9,400  Descending Boston Center
05:54PM 43.5347 -74.4792 150° Southeast 183 211 9,500  Climbing Boston Center
05:55PM 43.4894 -74.4461 152° Southeast 183 211 9,500  Level Boston Center
05:56PM 43.4464 -74.4047 145° Southeast 183 211 9,500 -180 Level Boston Center
05:57PM 43.4033 -74.3606 143° Southeast 183 211 9,200 -360 Descending Boston Center
05:58PM 43.3561 -74.3189 147° Southeast 189 217 8,800 -420 Descending Boston Center
05:59PM 43.3131 -74.2806 147° Southeast 194 223 8,400 -600 Descending Boston Center
06:00PM 43.2617 -74.2278 143° Southeast 201 231 7,700 -600 Descending Boston Center
06:01PM 43.2167 -74.1836 144° Southeast 212 244 7,300 -480 Descending Boston Center
06:02PM 43.1631 -74.1308 144° Southeast 212 244 6,800 -540 Descending Boston Center
06:03PM 43.1425 -74.1103 144° Southeast 215 247 6,500 -600 Descending Boston Center
06:03PM 43.1200 -74.0869 143° Southeast 217 250 6,200 -600 Descending Boston Center
06:04PM 43.0933 -74.0636 147° Southeast 217 250 5,900 -720 Descending Boston Center
06:04PM 43.0667 -74.0344 141° Southeast 217 250 5,500 -660 Descending Boston Center
06:05PM 43.0233 -73.9878 142° Southeast 217 250 5,000 -540 Descending Boston Center
06:06PM 42.9925 -73.9617 148° Southeast 210 242 4,700 -600 Descending Boston Center
06:06PM 42.9719 -73.9383 140° Southeast 217 250 4,400 -600 Descending Boston Center
06:07PM 42.9472 -73.9178 149° Southeast 204 235 4,100 -420 Descending Boston Center
06:07PM 42.9328 -73.9006 139° Southeast 212 244 4,000 -300 Descending Boston Center
06:08PM 42.9042 -73.8744 146° Southeast 191 220 3,800 -480 Descending Boston Center
06:09PM 42.8650 -73.8308 141° Southeast 186 214 3,300 -540 Descending Boston Center
06:10PM 42.8386 -73.7794 125° Southeast 175 201 2,800 -360 Descending Boston Center
06:10PM 42.8136 -73.7619 153° Southeast 181 208 2,800 -540 Level Boston Center
06:11PM 42.8142 -73.7278 89° East 167 192 2,300 -900 Descending Boston Center
06:11PM 42.7914 -73.7075 147° Southeast 156 180 1,900 -420 Descending Boston Center
06:13PM 42.7517 -73.7097 182° South 130 150 1,500 -420 Descending Boston Center
06:14PM 42.7514 -73.7492 269° West 87 100 1,000 -600 Descending Boston Center
06:15PM 42.7489 -73.7831 264° West 90 104 400  Descending Boston Center
06:42PM 42.7500 -73.8567 269° West 107 123 1,600 60 Climbing Boston Center
06:43PM 42.7664 -73.8908 303° West 107 123 2,300 540 Climbing Boston Center
06:44PM 42.7972 -73.9172 328° Northwest 114 131 2,900 480 Climbing Boston Center
06:45PM 42.8261 -73.9406 329° Northwest 124 143 3,400 480 Climbing Boston Center
06:46PM 42.8550 -73.9667 326° Northwest 126 145 3,900 480 Climbing Boston Center
06:47PM 42.8839 -73.9900 329° Northwest 124 143 4,400 420 Climbing Boston Center
06:48PM 42.9128 -74.0133 329° Northwest 123 142 4,800 420 Climbing Boston Center
06:49PM 42.9436 -74.0397 328° Northwest 128 147 5,300 480 Climbing Boston Center
06:50PM 42.9725 -74.0633 329° Northwest 127 146 5,800 420 Climbing Boston Center
06:51PM 43.0014 -74.0839 333° Northwest 128 147 6,200 300 Climbing Boston Center
06:52PM 43.0383 -74.1103 332° Northwest 138 159 6,500 60 Climbing Boston Center
06:53PM 43.0714 -74.1369 329° Northwest 138 159 6,400  Descending Boston Center
06:54PM 43.1106 -74.1692 329° Northwest 143 165 6,500  Climbing Boston Center
06:55PM 43.1456 -74.1958 331° Northwest 148 170 6,500  Level Boston Center
06:56PM 43.1825 -74.2253 330° Northwest 148 170 6,500 -60 Level Boston Center
06:57PM 43.2133 -74.2492 331° Northwest 143 165 6,400  Descending Boston Center
06:58PM 43.2506 -74.2758 332° Northwest 138 159 6,500  Climbing Boston Center
06:59PM 43.2814 -74.2967 334° Northwest 138 159 6,400 -60 Descending Boston Center
07:00PM 43.3103 -74.3206 329° Northwest 138 159 6,400  Level Boston Center
07:01PM 43.3453 -74.3500 329° Northwest 133 153 6,500  Climbing Boston Center
07:02PM 43.3800 -74.3797 328° Northwest 133 153 6,500  Level Boston Center
07:03PM 43.4108 -74.4094 325° Northwest 133 153 6,500  Level Boston Center